Shortt Gap, VA (24647)

11:48 AM EST on December 07, 2016 (GMT -0500)
KM4HDM - Richlands, Virginia | | Change Station

Elev 1972 ft 37.09 °N, 81.83 °W | Updated 1 minute ago

Scattered Clouds
Scattered Clouds
48.0 °F
Feels Like 48 °F
N
2.0
Wind Variable Wind from NNW

Today
High -- | Low -- °F
--% Chance of Precip.
Yesterday
High -- | Low -- °F
Precip. -- in
Pressure 30.08 in
Visibility 10.0 miles
Clouds Scattered Clouds 1800 ft
Windchill 48 °F
Dew Point 33 °F
Humidity 58%
Rainfall in
Snow Depth Not available.
7:28 AM 5:10 PM
First Quarter, 54% visible
METAR KJFZ 071635Z AUTO 00000KT 10SM SCT018 05/01 A3008 RMK AO2 T00480009
Pressure 30.08 in
Visibility 10.0 miles
Clouds Scattered Clouds 1800 ft
Windchill 48 °F
Dew Point 33 °F
Humidity 58%
Rainfall in
Snow Depth Not available.
7:28 AM 5:10 PM
First Quarter, 54% visible
METAR KJFZ 071635Z AUTO 00000KT 10SM SCT018 05/01 A3008 RMK AO2 T00480009

10-Day Weather Forecast

Almanac

Astronomy

Dec. 07, 2016 Rise Set
Actual Time
Civil Twilight
Nautical Twilight
Astronomical Twilight
Moon
Length of Visible Light
Length of Day
Tomorrow will be .
, % of the Moon is Illuminated

Today's Extremes

State Highs State Lows

Community

WunderPhotos

Upload Photos

1,956,132 photos uploaded!

WunderBlog® & News

Nearby

Air Quality

  Air Quality AQ Index Pollutant
Not available.

Snow Depth

Station Depth Elevation

Earthquake Activity

City Distance Mag. Time & Date
Minimum magnitude displayed is 2.5.

Coastal Water Temperatures

Place Temperature

Stations

Nearby Weather Stations

Station Location Temp. Windchill Dew Point Humidity Wind Precip. Elev Updated Type
                   

Watches & Warnings

There are currently no watches in effect.